createdAt,value
2023-03-12T00:01:23.829Z,5.30
2023-03-12T00:03:51.013Z,5.30
2023-03-12T00:06:18.782Z,5.20
2023-03-12T00:08:45.657Z,5.20
2023-03-12T00:11:15.303Z,5.20
2023-03-12T00:13:42.085Z,5.20
2023-03-12T00:16:15.022Z,5.20
2023-03-12T00:18:42.714Z,5.20
2023-03-12T00:21:10.594Z,5.20
2023-03-12T00:23:39.794Z,5.20
2023-03-12T00:26:12.275Z,5.20
2023-03-12T00:28:40.125Z,5.30
2023-03-12T00:31:16.682Z,5.30
2023-03-12T00:33:43.803Z,5.30
2023-03-12T00:36:10.718Z,5.30
2023-03-12T00:38:37.454Z,5.30
2023-03-12T00:41:04.261Z,5.30
2023-03-12T00:43:31.190Z,5.30
2023-03-12T00:45:58.031Z,5.30
2023-03-12T00:48:25.300Z,5.20
2023-03-12T00:50:52.238Z,5.30
2023-03-12T00:53:18.935Z,5.30
2023-03-12T00:55:45.543Z,5.40
2023-03-12T00:58:12.398Z,5.40
2023-03-12T01:00:39.072Z,5.30
2023-03-12T01:03:05.833Z,5.40
2023-03-12T01:05:37.538Z,5.50
2023-03-12T01:08:05.262Z,5.50
2023-03-12T01:10:32.339Z,5.50
2023-03-12T01:12:59.069Z,5.50
2023-03-12T01:15:26.007Z,5.50
2023-03-12T01:17:52.653Z,5.60
2023-03-12T01:20:19.552Z,5.60
2023-03-12T01:22:46.221Z,5.60
2023-03-12T01:25:12.978Z,5.60
2023-03-12T01:27:39.624Z,5.60
2023-03-12T01:30:07.017Z,5.70
2023-03-12T01:32:33.910Z,5.70
2023-03-12T01:35:00.893Z,5.70
2023-03-12T01:37:28.601Z,5.80
2023-03-12T01:39:55.270Z,5.70
2023-03-12T01:42:21.946Z,5.80
2023-03-12T01:44:56.537Z,5.80
2023-03-12T01:47:24.047Z,5.80
2023-03-12T01:49:52.992Z,5.80
2023-03-12T01:52:30.705Z,5.80
2023-03-12T01:55:11.616Z,5.90
2023-03-12T01:57:51.485Z,5.90
2023-03-12T02:00:24.611Z,5.90
2023-03-12T02:02:53.995Z,6.00
2023-03-12T02:05:30.001Z,6.00
2023-03-12T02:07:57.570Z,5.90
2023-03-12T02:10:25.790Z,5.80
2023-03-12T02:12:53.350Z,5.80
2023-03-12T02:15:20.174Z,5.80
2023-03-12T02:17:46.916Z,5.70
2023-03-12T02:20:49.449Z,5.70
2023-03-12T02:23:32.051Z,5.70
2023-03-12T02:26:00.367Z,5.60
2023-03-12T02:28:29.466Z,5.60
2023-03-12T02:31:03.753Z,5.60
2023-03-12T02:33:30.520Z,5.50
2023-03-12T02:35:57.218Z,5.50
2023-03-12T02:38:39.371Z,5.60
2023-03-12T02:41:31.364Z,5.60
2023-03-12T02:44:23.064Z,5.70
2023-03-12T02:46:52.793Z,5.70
2023-03-12T02:49:22.237Z,5.80
2023-03-12T02:51:49.251Z,5.80
2023-03-12T02:54:17.720Z,5.80
2023-03-12T02:56:44.572Z,5.80
2023-03-12T02:59:13.216Z,5.80
2023-03-12T03:01:40.357Z,5.80
2023-03-12T03:04:08.713Z,5.80
2023-03-12T03:06:37.810Z,5.70
2023-03-12T03:09:05.242Z,5.70
2023-03-12T03:11:31.995Z,5.60
2023-03-12T03:13:58.639Z,5.50
2023-03-12T03:16:25.332Z,5.40
2023-03-12T03:18:52.113Z,5.40
2023-03-12T03:21:19.062Z,5.30
2023-03-12T03:23:47.630Z,5.30
2023-03-12T03:26:15.067Z,5.20
2023-03-12T03:31:08.054Z,5.10
2023-03-12T03:33:37.245Z,5.10
2023-03-12T03:36:05.094Z,5.10
2023-03-12T03:38:33.092Z,5.20
2023-03-12T03:40:59.718Z,5.30
2023-03-12T03:43:26.903Z,5.30
2023-03-12T03:45:58.227Z,5.40
2023-03-12T03:48:25.382Z,5.50
2023-03-12T03:50:52.871Z,5.50
2023-03-12T03:53:20.138Z,5.60
2023-03-12T03:55:47.148Z,5.60
2023-03-12T03:58:14.063Z,5.70
2023-03-12T04:00:40.694Z,5.70
2023-03-12T04:03:07.360Z,5.70
2023-03-12T04:05:34.138Z,5.70
2023-03-12T04:08:03.247Z,5.60
2023-03-12T04:10:31.443Z,5.60
2023-03-12T04:12:58.282Z,5.60
2023-03-12T04:15:24.946Z,5.60
2023-03-12T04:17:51.632Z,5.60
2023-03-12T04:20:18.455Z,5.60
2023-03-12T04:22:45.064Z,5.60
2023-03-12T04:25:11.996Z,5.60
2023-03-12T04:27:38.748Z,5.60
2023-03-12T04:30:05.914Z,5.60
2023-03-12T04:32:32.789Z,5.60
2023-03-12T04:34:59.579Z,5.60
2023-03-12T04:37:26.260Z,5.60
2023-03-12T04:39:53.048Z,5.70
2023-03-12T04:42:19.710Z,5.70
2023-03-12T04:44:46.317Z,5.70
2023-03-12T04:47:12.977Z,5.70
2023-03-12T04:49:40.054Z,5.80
2023-03-12T04:52:06.918Z,5.70
2023-03-12T04:54:34.437Z,5.70
2023-03-12T04:57:01.150Z,5.70
2023-03-12T04:59:27.821Z,5.80
2023-03-12T05:01:54.488Z,5.80
2023-03-12T05:04:21.142Z,5.80
2023-03-12T05:06:47.764Z,5.80
2023-03-12T05:09:14.385Z,5.80
2023-03-12T05:11:41.086Z,5.80
2023-03-12T05:14:08.731Z,5.80
2023-03-12T05:16:35.756Z,5.80
2023-03-12T05:19:02.501Z,5.80
2023-03-12T05:21:29.159Z,5.90
2023-03-12T05:23:56.184Z,5.90
2023-03-12T05:26:25.744Z,5.90
2023-03-12T05:28:52.998Z,5.90
2023-03-12T05:31:20.788Z,5.80
2023-03-12T05:33:48.603Z,5.80
2023-03-12T05:36:17.115Z,5.80
2023-03-12T05:38:43.969Z,5.70
2023-03-12T05:41:21.484Z,5.70
2023-03-12T05:43:48.304Z,5.70
2023-03-12T05:46:15.571Z,5.70
2023-03-12T05:48:42.243Z,5.70
2023-03-12T05:51:08.942Z,5.70
2023-03-12T05:53:35.692Z,5.80
2023-03-12T05:56:05.095Z,5.70
2023-03-12T05:58:33.085Z,5.70
2023-03-12T06:00:59.824Z,5.70
2023-03-12T06:03:26.737Z,5.80
2023-03-12T06:05:56.160Z,5.70
2023-03-12T06:08:23.899Z,5.70
2023-03-12T06:10:53.174Z,5.70
2023-03-12T06:13:19.813Z,5.70
2023-03-12T06:15:46.499Z,5.70
2023-03-12T06:18:13.144Z,5.70
2023-03-12T06:20:39.868Z,5.80
2023-03-12T06:23:06.471Z,5.80
2023-03-12T06:25:33.320Z,5.90
2023-03-12T06:28:00.041Z,5.80
2023-03-12T06:30:27.866Z,5.90
2023-03-12T06:32:55.101Z,5.80
2023-03-12T06:35:21.858Z,5.90
2023-03-12T06:37:48.486Z,5.90
2023-03-12T06:40:15.192Z,6.00
2023-03-12T06:42:41.806Z,6.00
2023-03-12T06:45:08.967Z,6.10
2023-03-12T06:47:35.681Z,6.10
2023-03-12T06:50:02.360Z,6.10
2023-03-12T06:52:29.039Z,6.10
2023-03-12T06:54:55.695Z,6.10
2023-03-12T06:57:22.316Z,6.20
2023-03-12T06:59:50.632Z,6.20
2023-03-12T07:02:17.825Z,6.30
2023-03-12T07:04:44.605Z,6.30
2023-03-12T07:07:11.946Z,6.40
2023-03-12T07:09:38.593Z,6.40
2023-03-12T07:12:05.373Z,6.40
2023-03-12T07:14:32.138Z,6.40
2023-03-12T07:17:01.698Z,6.50
2023-03-12T07:19:30.385Z,6.50
2023-03-12T07:21:57.257Z,6.50
2023-03-12T07:24:23.992Z,6.50
2023-03-12T07:26:50.659Z,6.60
2023-03-12T07:29:17.431Z,6.70
2023-03-12T07:31:44.195Z,6.70
2023-03-12T07:34:10.949Z,6.80
2023-03-12T07:36:37.858Z,6.80
2023-03-12T07:39:04.697Z,6.90
2023-03-12T07:41:31.470Z,7.00
2023-03-12T07:43:58.210Z,7.10
2023-03-12T07:46:25.225Z,7.10
2023-03-12T07:48:51.988Z,7.20
2023-03-12T07:51:18.600Z,7.40
2023-03-12T07:53:45.574Z,7.50
2023-03-12T07:56:12.608Z,7.60
2023-03-12T07:58:39.508Z,7.70
2023-03-12T08:01:06.732Z,7.80
2023-03-12T08:03:33.890Z,7.80
2023-03-12T08:06:03.410Z,7.90
2023-03-12T08:08:31.360Z,8.00
2023-03-12T08:10:59.327Z,8.00
2023-03-12T08:13:26.147Z,8.10
2023-03-12T08:15:54.254Z,8.20
2023-03-12T08:18:21.782Z,8.30
2023-03-12T08:20:53.650Z,8.40
2023-03-12T08:23:21.194Z,8.30
2023-03-12T08:25:49.579Z,8.40
2023-03-12T08:28:17.663Z,8.50
2023-03-12T08:30:53.409Z,8.60
2023-03-12T08:33:21.465Z,8.70
2023-03-12T08:35:49.687Z,8.80
2023-03-12T08:38:16.391Z,8.90
2023-03-12T08:40:43.353Z,8.90
2023-03-12T08:43:10.176Z,9.00
2023-03-12T08:45:37.385Z,9.10
2023-03-12T08:48:07.919Z,9.10
2023-03-12T08:50:34.744Z,9.10
2023-03-12T08:53:01.585Z,9.10
2023-03-12T08:55:28.307Z,9.10
2023-03-12T08:57:58.000Z,9.10
2023-03-12T09:00:25.030Z,9.20
2023-03-12T09:02:53.519Z,9.10
2023-03-12T09:05:20.760Z,9.20
2023-03-12T09:07:47.466Z,9.20
2023-03-12T09:10:14.132Z,9.30
2023-03-12T09:12:40.929Z,9.50
2023-03-12T09:15:08.675Z,9.50
2023-03-12T09:17:36.531Z,9.60
2023-03-12T09:20:07.999Z,9.60
2023-03-12T09:22:39.657Z,9.70
2023-03-12T09:25:09.361Z,9.70
2023-03-12T09:27:42.028Z,9.80
2023-03-12T09:30:12.126Z,9.80
2023-03-12T09:32:39.258Z,9.80
2023-03-12T09:35:07.653Z,9.70
2023-03-12T09:37:35.498Z,9.80
2023-03-12T09:40:05.796Z,9.80
2023-03-12T09:42:46.210Z,9.90
2023-03-12T09:45:23.966Z,9.90
2023-03-12T09:48:03.568Z,9.80
2023-03-12T09:50:40.537Z,9.90
2023-03-12T09:53:23.818Z,9.90
2023-03-12T09:55:52.609Z,9.90
2023-03-12T09:58:27.270Z,9.90
2023-03-12T10:01:24.253Z,9.90
2023-03-12T10:04:17.338Z,9.90
2023-03-12T10:06:55.391Z,10.00
2023-03-12T10:09:41.995Z,10.10
2023-03-12T10:12:23.378Z,10.10
2023-03-12T10:14:55.982Z,10.10
2023-03-12T10:17:56.701Z,10.10
2023-03-12T10:21:00.635Z,10.20
2023-03-12T10:23:52.471Z,10.20
2023-03-12T10:26:21.855Z,10.30
2023-03-12T10:29:02.231Z,10.30
2023-03-12T10:31:30.949Z,10.40
2023-03-12T10:34:02.849Z,10.40
2023-03-12T10:36:41.513Z,10.50
2023-03-12T10:39:17.292Z,10.50
2023-03-12T10:41:46.231Z,10.50
2023-03-12T10:44:23.723Z,10.50
2023-03-12T10:47:15.850Z,10.50
2023-03-12T10:49:44.141Z,10.50
2023-03-12T10:52:19.808Z,10.50
2023-03-12T10:54:49.306Z,10.50
2023-03-12T10:57:16.460Z,10.50
2023-03-12T10:59:45.851Z,10.50
2023-03-12T11:02:32.275Z,10.50
2023-03-12T11:05:01.215Z,10.60
2023-03-12T11:07:35.598Z,10.60
2023-03-12T11:10:08.568Z,10.80
2023-03-12T11:12:37.465Z,10.70
2023-03-12T11:15:28.770Z,10.80
2023-03-12T11:18:25.459Z,10.90
2023-03-12T11:21:14.322Z,10.90
2023-03-12T11:23:57.568Z,11.00
2023-03-12T11:26:38.485Z,11.10
2023-03-12T11:29:45.659Z,11.00
2023-03-12T12:36:13.599Z,11.70
2023-03-12T12:38:45.884Z,11.60
2023-03-12T12:45:06.675Z,11.60
2023-03-12T12:59:23.438Z,11.60
2023-03-12T13:01:56.981Z,11.60
2023-03-12T13:04:39.473Z,11.50
2023-03-12T13:07:11.773Z,11.50
2023-03-12T13:09:50.707Z,11.50
2023-03-12T13:12:37.859Z,11.50
2023-03-12T13:15:33.466Z,11.50
2023-03-12T13:18:03.118Z,11.60
2023-03-12T13:20:46.813Z,11.60
2023-03-12T13:23:34.773Z,11.60
2023-03-12T13:26:14.475Z,11.60
2023-03-12T13:28:56.947Z,11.70
2023-03-12T13:31:29.170Z,11.70
2023-03-12T13:34:09.007Z,11.70
2023-03-12T13:36:44.930Z,11.80
2023-03-12T13:39:33.703Z,11.80
2023-03-12T13:42:02.040Z,11.90
2023-03-12T13:44:39.961Z,11.90
2023-03-12T13:47:27.543Z,11.90
2023-03-12T13:49:58.488Z,11.90
2023-03-12T13:52:33.664Z,12.00
2023-03-12T13:55:21.146Z,12.00
2023-03-12T13:57:52.855Z,12.10
2023-03-12T14:00:30.890Z,12.20
2023-03-12T14:03:25.032Z,12.20
2023-03-12T14:05:51.768Z,12.20
2023-03-12T14:08:51.161Z,12.40
2023-03-12T14:11:36.035Z,12.50
2023-03-12T14:14:17.753Z,12.40
2023-03-12T14:16:49.234Z,12.40
2023-03-12T14:19:25.355Z,12.50
2023-03-12T14:21:52.859Z,12.60
2023-03-12T14:24:23.306Z,12.60
2023-03-12T14:26:50.952Z,12.60
2023-03-12T14:29:38.015Z,12.60
2023-03-12T14:32:13.680Z,12.70
2023-03-12T14:34:47.590Z,12.80
2023-03-12T14:37:20.063Z,12.80
2023-03-12T14:39:55.456Z,12.80
2023-03-12T14:42:30.283Z,12.80
2023-03-12T14:45:03.717Z,12.80
2023-03-12T14:47:30.395Z,12.70
2023-03-12T14:49:59.020Z,12.70
2023-03-12T14:52:29.467Z,12.80
2023-03-12T14:55:13.184Z,12.80
2023-03-12T14:57:40.007Z,12.90
2023-03-12T15:00:22.128Z,12.90
2023-03-12T15:02:49.231Z,12.90
2023-03-12T15:05:18.059Z,12.90
2023-03-12T15:07:46.220Z,13.00
2023-03-12T15:10:23.264Z,13.00
2023-03-12T15:12:51.727Z,13.00
2023-03-12T15:15:41.440Z,12.90
2023-03-12T15:18:20.668Z,12.90
2023-03-12T15:20:49.037Z,12.90
2023-03-12T15:23:18.197Z,12.90
2023-03-12T15:25:45.458Z,12.80
2023-03-12T15:28:14.892Z,12.90
2023-03-12T15:30:43.305Z,12.90
2023-03-12T15:33:11.502Z,13.00
2023-03-12T15:35:57.952Z,13.10
2023-03-12T15:38:25.546Z,13.20
2023-03-12T15:40:56.045Z,13.10
2023-03-12T15:43:24.422Z,13.10
2023-03-12T15:46:17.803Z,13.10
2023-03-12T15:48:51.227Z,13.10
2023-03-12T15:51:40.411Z,13.10
2023-03-12T15:54:12.998Z,13.10
2023-03-12T15:56:39.632Z,13.10
2023-03-12T15:59:15.620Z,13.10
2023-03-12T16:11:31.392Z,12.90
2023-03-12T16:14:15.068Z,13.00
2023-03-12T16:16:51.537Z,13.00
2023-03-12T16:19:21.183Z,12.90
2023-03-12T16:21:49.086Z,12.90
2023-03-12T16:24:16.915Z,12.80
2023-03-12T16:26:50.227Z,12.80
2023-03-12T16:29:19.071Z,12.80
2023-03-12T16:31:55.893Z,12.90
2023-03-12T16:34:24.435Z,12.90
2023-03-12T16:36:52.405Z,12.80
2023-03-12T16:39:24.529Z,12.80
2023-03-12T16:41:53.437Z,12.70
2023-03-12T16:44:42.114Z,12.70
2023-03-12T16:47:29.315Z,12.70
2023-03-12T16:50:15.505Z,12.70
2023-03-12T16:53:07.932Z,12.80
2023-03-12T16:55:45.292Z,12.70
2023-03-12T16:58:14.065Z,12.70
2023-03-12T17:00:41.532Z,12.60
2023-03-12T17:03:08.242Z,12.60
2023-03-12T17:05:34.919Z,12.60
2023-03-12T17:08:02.331Z,12.50
2023-03-12T17:10:29.059Z,12.50
2023-03-12T17:13:00.386Z,12.40
2023-03-12T17:15:30.770Z,12.40
2023-03-12T17:18:01.051Z,12.30
2023-03-12T17:20:28.051Z,12.30
2023-03-12T17:22:55.212Z,12.30
2023-03-12T17:25:27.610Z,12.30
2023-03-12T17:27:57.561Z,12.20
2023-03-12T17:30:25.520Z,12.00
2023-03-12T17:32:52.904Z,11.90
2023-03-12T17:35:28.916Z,11.80
2023-03-12T17:37:55.588Z,11.70
2023-03-12T17:40:22.351Z,11.70
2023-03-12T17:42:49.162Z,11.60
2023-03-12T17:45:17.444Z,11.50
2023-03-12T17:47:44.163Z,11.50
2023-03-12T17:50:13.608Z,11.50
2023-03-12T17:52:40.813Z,11.40
2023-03-12T17:55:11.720Z,11.30
2023-03-12T17:57:38.910Z,11.30
2023-03-12T18:00:15.376Z,11.20
2023-03-12T18:02:42.184Z,11.10
2023-03-12T18:05:11.136Z,11.00
2023-03-12T18:07:38.481Z,11.00
2023-03-12T18:10:07.821Z,10.90
2023-03-12T18:12:35.527Z,10.90
2023-03-12T18:15:06.685Z,10.80
2023-03-12T18:17:33.345Z,10.90
2023-03-12T18:20:00.147Z,10.80
2023-03-12T18:22:26.758Z,10.80
2023-03-12T18:24:53.347Z,10.60
2023-03-12T18:27:19.957Z,10.60
2023-03-12T18:29:46.640Z,10.40
2023-03-12T18:32:13.465Z,10.20
2023-03-12T18:34:42.321Z,10.00
2023-03-12T18:37:12.093Z,10.00
2023-03-12T18:39:38.680Z,9.90
2023-03-12T18:42:05.418Z,9.90
2023-03-12T18:44:32.022Z,9.90
2023-03-12T18:46:58.690Z,9.90
2023-03-12T18:49:25.392Z,9.80
2023-03-12T18:51:55.796Z,9.70
2023-03-12T18:54:24.752Z,9.70
2023-03-12T18:56:51.628Z,9.60
2023-03-12T18:59:18.540Z,9.60
2023-03-12T19:01:45.485Z,9.50
2023-03-12T19:04:17.134Z,9.50
2023-03-12T19:06:51.295Z,9.50
2023-03-12T19:09:19.093Z,9.50
2023-03-12T19:11:49.453Z,9.50
2023-03-12T19:14:16.280Z,9.50
2023-03-12T19:16:43.344Z,9.40
2023-03-12T19:19:10.093Z,9.30
2023-03-12T19:21:36.778Z,9.30
2023-03-12T19:24:04.015Z,9.40
2023-03-12T19:26:30.869Z,9.20
2023-03-12T19:28:57.517Z,9.20
2023-03-12T19:31:25.393Z,9.10
2023-03-12T19:33:52.238Z,9.00
2023-03-12T19:36:18.854Z,9.00
2023-03-12T19:38:45.450Z,8.90
2023-03-12T19:41:12.117Z,8.90
2023-03-12T19:43:40.010Z,8.80
2023-03-12T19:46:07.042Z,8.90
2023-03-12T19:48:34.428Z,8.80
2023-03-12T19:51:11.581Z,8.90
2023-03-12T19:53:38.724Z,9.00
2023-03-12T19:56:06.283Z,9.00
2023-03-12T19:58:33.573Z,8.80
2023-03-12T20:01:01.524Z,8.90
2023-03-12T20:03:29.053Z,8.90
2023-03-12T20:05:56.387Z,8.80
2023-03-12T20:08:25.976Z,8.80
2023-03-12T20:10:52.561Z,8.80
2023-03-12T20:13:19.479Z,8.70
2023-03-12T20:15:49.329Z,8.70
2023-03-12T20:18:16.121Z,8.60
2023-03-12T20:20:43.048Z,8.50
2023-03-12T20:23:10.213Z,8.40
2023-03-12T20:25:41.055Z,8.40
2023-03-12T20:28:09.078Z,8.30
2023-03-12T20:30:39.633Z,8.20
2023-03-12T20:33:08.188Z,8.20
2023-03-12T20:35:35.931Z,8.20
2023-03-12T20:38:02.856Z,8.20
2023-03-12T20:40:29.757Z,8.20
2023-03-12T20:42:56.509Z,8.20
2023-03-12T20:45:23.340Z,8.30
2023-03-12T20:47:50.055Z,8.30
2023-03-12T20:50:17.027Z,8.10
2023-03-12T20:52:45.056Z,7.90
2023-03-12T20:55:12.077Z,7.90
2023-03-12T20:57:38.673Z,7.90
2023-03-12T21:00:08.893Z,7.90
2023-03-12T21:02:35.725Z,7.80
2023-03-12T21:05:02.374Z,7.80
2023-03-12T21:07:28.998Z,7.80
2023-03-12T21:09:55.590Z,7.70
2023-03-12T21:12:22.185Z,7.70
2023-03-12T21:14:49.066Z,7.70
2023-03-12T21:17:15.726Z,7.70
2023-03-12T21:19:42.700Z,7.70
2023-03-12T21:22:10.060Z,7.60
2023-03-12T21:24:36.727Z,7.60
2023-03-12T21:27:03.615Z,7.50
2023-03-12T21:29:30.283Z,7.50
2023-03-12T21:31:57.427Z,7.50
2023-03-12T21:34:24.232Z,7.50
2023-03-12T21:36:50.861Z,7.50
2023-03-12T21:39:17.853Z,7.50
2023-03-12T21:41:44.567Z,7.40
2023-03-12T21:44:11.179Z,7.40
2023-03-12T21:46:37.919Z,7.40
2023-03-12T21:49:04.863Z,7.40
2023-03-12T21:51:31.618Z,7.40
2023-03-12T21:53:58.827Z,7.40
2023-03-12T21:56:30.180Z,7.40
2023-03-12T21:58:57.385Z,7.40
2023-03-12T22:01:24.471Z,7.30
2023-03-12T22:03:51.315Z,7.30
2023-03-12T22:06:17.981Z,7.30
2023-03-12T22:08:48.082Z,7.40
2023-03-12T22:11:15.759Z,7.50
2023-03-12T22:13:42.620Z,7.50
2023-03-12T22:16:11.103Z,7.30
2023-03-12T22:18:39.988Z,7.20
2023-03-12T22:21:07.721Z,7.20
2023-03-12T22:23:36.952Z,7.20
2023-03-12T22:26:05.563Z,7.30
2023-03-12T22:28:32.724Z,7.40
2023-03-12T22:31:01.042Z,7.40
2023-03-12T22:33:28.787Z,7.30
2023-03-12T22:35:56.280Z,7.30
2023-03-12T22:38:23.959Z,7.20
2023-03-12T22:40:50.914Z,7.20
2023-03-12T22:43:17.563Z,7.20
2023-03-12T22:45:44.178Z,7.10
2023-03-12T22:48:10.884Z,7.10
2023-03-12T22:50:37.560Z,7.10
2023-03-12T22:53:04.175Z,7.00
2023-03-12T22:55:30.803Z,6.90
2023-03-12T22:57:57.480Z,6.90
2023-03-12T23:00:26.430Z,7.00
2023-03-12T23:02:53.214Z,7.00
2023-03-12T23:05:20.261Z,7.00
2023-03-12T23:07:47.296Z,6.90
2023-03-12T23:10:14.002Z,7.00
2023-03-12T23:12:40.668Z,7.00
2023-03-12T23:15:11.076Z,7.00
2023-03-12T23:17:40.582Z,7.00
2023-03-12T23:20:11.069Z,6.90
2023-03-12T23:22:40.453Z,6.90
2023-03-12T23:25:07.853Z,6.80
2023-03-12T23:27:34.534Z,6.80
2023-03-12T23:30:01.176Z,6.90
2023-03-12T23:32:27.845Z,6.70
2023-03-12T23:34:54.457Z,6.70
2023-03-12T23:37:21.400Z,6.70
2023-03-12T23:39:54.393Z,6.70
2023-03-12T23:42:21.357Z,6.70
2023-03-12T23:44:48.026Z,6.70
2023-03-12T23:47:14.698Z,6.70
2023-03-12T23:49:41.315Z,6.70
2023-03-12T23:52:07.937Z,6.70
2023-03-12T23:54:35.801Z,6.70
2023-03-12T23:57:02.589Z,6.80
2023-03-12T23:59:29.221Z,6.70
